createdAt,value
2018-05-14T00:02:24.117Z,98794.89
2018-05-14T00:04:51.650Z,98790.86
2018-05-14T00:07:19.184Z,98793.34
2018-05-14T00:09:46.673Z,98786.72
2018-05-14T00:12:14.141Z,98787.82
2018-05-14T00:14:41.640Z,98790.11
2018-05-14T00:17:09.182Z,98791.70
2018-05-14T00:19:36.671Z,98791.80
2018-05-14T00:22:04.159Z,98797.54
2018-05-14T00:24:31.667Z,98795.86
2018-05-14T00:26:59.187Z,98788.72
2018-05-14T00:29:26.721Z,98793.82
2018-05-14T00:31:54.195Z,98795.20
2018-05-14T00:34:21.758Z,98787.53
2018-05-14T00:36:49.302Z,98786.11
2018-05-14T00:39:16.803Z,98789.14
2018-05-14T00:41:44.324Z,98787.58
2018-05-14T00:44:11.839Z,98788.68
2018-05-14T00:46:39.436Z,98792.27
2018-05-14T00:49:06.950Z,98790.47
2018-05-14T00:51:34.462Z,98785.11
2018-05-14T00:54:01.939Z,98787.30
2018-05-14T00:56:29.416Z,98783.48
2018-05-14T00:58:56.931Z,98787.73
2018-05-14T01:01:24.416Z,98795.05
2018-05-14T01:03:51.906Z,98789.50
2018-05-14T01:06:19.452Z,98791.88
2018-05-14T01:08:46.947Z,98793.73
2018-05-14T01:11:14.434Z,98797.37
2018-05-14T01:13:41.937Z,98791.50
2018-05-14T01:16:09.463Z,98798.55
2018-05-14T01:18:36.977Z,98792.67
2018-05-14T01:21:04.475Z,98792.67
2018-05-14T01:23:31.949Z,98798.23
2018-05-14T01:25:59.454Z,98799.94
2018-05-14T01:28:26.949Z,98800.11
2018-05-14T01:30:54.442Z,98801.09
2018-05-14T01:33:22.007Z,98796.52
2018-05-14T01:35:49.513Z,98805.35
2018-05-14T01:38:17.017Z,98799.89
2018-05-14T01:40:44.562Z,98803.54
2018-05-14T01:43:12.101Z,98802.70
2018-05-14T01:45:39.676Z,98807.11
2018-05-14T01:48:07.181Z,98805.34
2018-05-14T01:50:34.747Z,98806.88
2018-05-14T01:53:02.219Z,98811.10
2018-05-14T01:55:29.683Z,98819.52
2018-05-14T01:57:57.184Z,98813.36
2018-05-14T02:00:24.727Z,98825.84
2018-05-14T02:02:52.218Z,98827.05
2018-05-14T02:05:19.714Z,98816.72
2018-05-14T02:07:47.257Z,98821.65
2018-05-14T02:10:14.731Z,98826.11
2018-05-14T02:12:42.234Z,98821.87
2018-05-14T02:15:09.836Z,98822.37
2018-05-14T02:17:37.345Z,98824.84
2018-05-14T02:20:04.851Z,98804.97
2018-05-14T02:22:32.328Z,98806.30
2018-05-14T02:24:59.836Z,98813.52
2018-05-14T02:27:27.351Z,98812.52
2018-05-14T02:29:54.826Z,98803.73
2018-05-14T02:32:22.301Z,98813.22
2018-05-14T02:34:49.827Z,98807.36
2018-05-14T02:37:17.375Z,98804.94
2018-05-14T02:39:44.892Z,98806.42
2018-05-14T02:42:12.401Z,98802.03
2018-05-14T02:44:41.190Z,98803.90
2018-05-14T02:47:08.688Z,98802.05
2018-05-14T02:49:36.175Z,98805.66
2018-05-14T02:52:03.694Z,98808.30
2018-05-14T02:54:31.276Z,98812.42
2018-05-14T02:56:58.818Z,98816.91
2018-05-14T02:59:26.302Z,98830.88
2018-05-14T03:01:53.841Z,98821.84
2018-05-14T03:04:21.377Z,98837.45
2018-05-14T03:06:48.916Z,98839.88
2018-05-14T03:09:16.485Z,98834.25
2018-05-14T03:11:43.986Z,98834.36
2018-05-14T03:14:11.502Z,98840.58
2018-05-14T03:16:39.027Z,98849.28
2018-05-14T03:19:06.519Z,98850.95
2018-05-14T03:21:34.054Z,98847.35
2018-05-14T03:24:01.584Z,98856.23
2018-05-14T03:26:29.087Z,98858.17
2018-05-14T03:28:56.615Z,98859.44
2018-05-14T03:31:24.152Z,98864.30
2018-05-14T03:33:51.628Z,98864.16
2018-05-14T03:36:19.116Z,98864.23
2018-05-14T03:38:47.283Z,98861.64
2018-05-14T03:41:14.779Z,98860.34
2018-05-14T03:43:42.279Z,98865.70
2018-05-14T03:46:09.749Z,98866.80
2018-05-14T03:48:37.271Z,98869.40
2018-05-14T03:51:04.791Z,98876.02
2018-05-14T03:53:32.269Z,98883.05
2018-05-14T03:55:59.748Z,98878.20
2018-05-14T03:58:39.034Z,98877.77
2018-05-14T04:01:13.275Z,98883.84
2018-05-14T04:03:52.488Z,98878.23
2018-05-14T04:06:31.599Z,98882.23
2018-05-14T04:08:59.202Z,98893.25
2018-05-14T04:11:26.761Z,98892.03
2018-05-14T04:13:55.199Z,98899.66
2018-05-14T04:16:22.681Z,98893.44
2018-05-14T04:18:50.182Z,98889.11
2018-05-14T04:21:17.682Z,98893.59
2018-05-14T04:23:45.189Z,98898.52
2018-05-14T04:26:12.682Z,98900.17
2018-05-14T04:28:40.214Z,98899.89
2018-05-14T04:31:07.695Z,98903.83
2018-05-14T04:33:35.195Z,98910.37
2018-05-14T04:36:02.707Z,98912.72
2018-05-14T04:38:30.174Z,98918.43
2018-05-14T04:40:57.677Z,98921.05
2018-05-14T04:43:25.175Z,98920.77
2018-05-14T04:45:52.665Z,98920.91
2018-05-14T04:48:20.169Z,98919.68
2018-05-14T04:50:48.378Z,98919.15
2018-05-14T04:53:15.834Z,98919.84
2018-05-14T04:55:43.327Z,98919.91
2018-05-14T04:58:10.834Z,98921.59
2018-05-14T05:00:38.314Z,98925.68
2018-05-14T05:03:05.796Z,98927.47
2018-05-14T05:05:33.331Z,98939.66
2018-05-14T05:08:00.813Z,98940.50
2018-05-14T05:10:28.322Z,98944.45
2018-05-14T05:12:55.841Z,98946.22
2018-05-14T05:15:23.356Z,98949.03
2018-05-14T05:17:50.867Z,98945.75
2018-05-14T05:20:18.343Z,98955.80
2018-05-14T05:22:45.888Z,98954.40
2018-05-14T05:25:13.427Z,98951.34
2018-05-14T05:27:40.904Z,98957.95
2018-05-14T05:30:08.506Z,98958.70
2018-05-14T05:32:36.006Z,98962.58
2018-05-14T05:35:03.547Z,98967.06
2018-05-14T05:37:31.024Z,98971.19
2018-05-14T05:39:58.519Z,98970.02
2018-05-14T05:42:26.045Z,98977.64
2018-05-14T05:44:53.552Z,98978.30
2018-05-14T05:47:21.054Z,98977.19
2018-05-14T05:49:48.587Z,98974.52
2018-05-14T05:52:16.115Z,98976.16
2018-05-14T05:54:43.662Z,98983.34
2018-05-14T05:57:11.127Z,98979.27
2018-05-14T05:59:38.669Z,98986.19
2018-05-14T06:02:06.182Z,98989.31
2018-05-14T06:04:33.653Z,98982.94
2018-05-14T06:07:01.182Z,98983.28
2018-05-14T06:09:28.751Z,98979.49
2018-05-14T06:11:56.206Z,98986.82
2018-05-14T06:14:23.691Z,98986.67
2018-05-14T06:16:51.223Z,98991.99
2018-05-14T06:19:18.733Z,98995.23
2018-05-14T06:21:46.245Z,98994.73
2018-05-14T06:24:13.817Z,98996.95
2018-05-14T06:26:41.340Z,98999.24
2018-05-14T06:29:08.859Z,98999.52
2018-05-14T06:31:36.391Z,98993.83
2018-05-14T06:34:03.971Z,98997.34
2018-05-14T06:36:31.454Z,98987.19
2018-05-14T06:38:58.940Z,98995.66
2018-05-14T06:41:26.419Z,98990.44
2018-05-14T06:43:53.898Z,99001.63
2018-05-14T06:46:21.415Z,98996.39
2018-05-14T06:48:48.903Z,98995.55
2018-05-14T06:51:17.025Z,99001.55
2018-05-14T06:53:44.593Z,98994.25
2018-05-14T06:56:12.109Z,98982.01
2018-05-14T06:58:39.616Z,98990.98
2018-05-14T07:01:07.091Z,98992.95
2018-05-14T07:03:34.557Z,98988.05
2018-05-14T07:06:02.062Z,98987.24
2018-05-14T07:08:29.678Z,98993.69
2018-05-14T07:10:57.219Z,98992.45
2018-05-14T07:13:24.704Z,98993.44
2018-05-14T07:15:52.194Z,98993.53
2018-05-14T07:18:19.698Z,98993.72
2018-05-14T07:20:47.223Z,99002.05
2018-05-14T07:23:14.699Z,98999.73
2018-05-14T07:25:42.183Z,99001.18
2018-05-14T07:28:09.702Z,99002.16
2018-05-14T07:30:37.199Z,98997.23
2018-05-14T07:33:04.725Z,99002.93
2018-05-14T07:35:32.342Z,99000.39
2018-05-14T07:37:59.758Z,98989.34
2018-05-14T07:40:27.287Z,98991.34
2018-05-14T07:42:54.757Z,98995.24
2018-05-14T07:45:22.220Z,98995.13
2018-05-14T07:47:49.714Z,99000.16
2018-05-14T07:50:17.248Z,98993.66
2018-05-14T07:52:44.783Z,98993.74
2018-05-14T07:55:12.477Z,98995.05
2018-05-14T07:57:41.630Z,98996.80
2018-05-14T08:00:09.163Z,98993.02
2018-05-14T08:02:36.649Z,98995.11
2018-05-14T08:05:04.735Z,98993.89
2018-05-14T08:07:32.191Z,98990.14
2018-05-14T08:09:59.712Z,98993.48
2018-05-14T08:12:27.178Z,98992.81
2018-05-14T08:14:54.666Z,98993.94
2018-05-14T08:17:22.189Z,99001.00
2018-05-14T08:19:49.652Z,98998.53
2018-05-14T08:22:17.126Z,98994.61
2018-05-14T08:24:44.616Z,98986.00
2018-05-14T08:27:12.082Z,98992.73
2018-05-14T08:29:39.607Z,98994.09
2018-05-14T08:32:07.040Z,98992.52
2018-05-14T08:34:34.519Z,98996.49
2018-05-14T08:37:02.051Z,98998.22
2018-05-14T08:39:29.599Z,98992.83
2018-05-14T08:41:57.094Z,98991.12
2018-05-14T08:44:24.651Z,98997.37
2018-05-14T08:46:52.134Z,98987.70
2018-05-14T08:49:19.649Z,98991.34
2018-05-14T08:51:47.191Z,98992.03
2018-05-14T08:54:14.851Z,98983.12
2018-05-14T08:56:42.178Z,98990.60
2018-05-14T08:59:09.658Z,98977.01
2018-05-14T09:01:37.202Z,98980.55
2018-05-14T09:04:04.734Z,98987.91
2018-05-14T09:06:32.231Z,98979.44
2018-05-14T09:08:59.732Z,98988.88
2018-05-14T09:11:27.231Z,98992.55
2018-05-14T09:13:55.415Z,98992.77
2018-05-14T09:16:22.933Z,98993.88
2018-05-14T09:18:50.414Z,98991.59
2018-05-14T09:21:17.877Z,98996.46
2018-05-14T09:23:45.453Z,98993.84
2018-05-14T09:26:12.996Z,98991.34
2018-05-14T09:28:40.485Z,98993.00
2018-05-14T09:31:08.004Z,98990.25
2018-05-14T09:33:36.035Z,98993.11
2018-05-14T09:36:03.590Z,98998.87
2018-05-14T09:38:31.094Z,99008.88
2018-05-14T09:40:58.575Z,99015.75
2018-05-14T09:43:26.084Z,99008.42
2018-05-14T09:45:53.569Z,99015.88
2018-05-14T09:48:21.064Z,99012.67
2018-05-14T09:50:48.592Z,99012.02
2018-05-14T09:53:16.177Z,99006.69
2018-05-14T09:55:43.719Z,99015.38
2018-05-14T09:58:11.271Z,99015.13
2018-05-14T10:00:38.804Z,99015.95
2018-05-14T10:03:06.361Z,99022.03
2018-05-14T10:05:33.862Z,99020.18
2018-05-14T10:08:01.426Z,99016.48
2018-05-14T10:10:28.918Z,99026.68
2018-05-14T10:12:56.480Z,99017.48
2018-05-14T10:15:23.983Z,99030.88
2018-05-14T10:17:51.474Z,99029.66
2018-05-14T10:20:18.947Z,99028.51
2018-05-14T10:22:46.406Z,99041.00
2018-05-14T10:25:13.876Z,99034.16
2018-05-14T10:27:41.389Z,99036.53
2018-05-14T10:30:08.856Z,99041.63
2018-05-14T10:32:36.339Z,99041.78
2018-05-14T10:35:03.814Z,99038.64
2018-05-14T10:37:31.290Z,99037.68
2018-05-14T10:39:58.806Z,99026.42
2018-05-14T10:42:26.679Z,99038.36
2018-05-14T10:44:54.179Z,99036.70
2018-05-14T10:47:21.747Z,99043.86
2018-05-14T10:49:49.227Z,99044.00
2018-05-14T10:52:16.714Z,99047.73
2018-05-14T10:54:44.260Z,99047.03
2018-05-14T10:57:11.742Z,99041.33
2018-05-14T10:59:39.243Z,99041.31
2018-05-14T11:02:06.861Z,99037.52
2018-05-14T11:04:34.323Z,99037.89
2018-05-14T11:07:01.834Z,99039.40
2018-05-14T11:09:29.389Z,99041.50
2018-05-14T11:11:56.867Z,99038.17
2018-05-14T11:14:24.345Z,99035.78
2018-05-14T11:16:51.996Z,99041.64
2018-05-14T11:19:19.482Z,99036.31
2018-05-14T11:21:46.981Z,99045.41
2018-05-14T11:24:14.484Z,99039.80
2018-05-14T11:26:41.977Z,99037.50
2018-05-14T11:29:09.449Z,99041.78
2018-05-14T11:31:36.975Z,99042.11
2018-05-14T11:34:04.490Z,99046.19
2018-05-14T11:36:31.977Z,99043.64
2018-05-14T11:38:59.464Z,99045.50
2018-05-14T11:41:27.111Z,99047.68
2018-05-14T11:43:54.651Z,99048.18
2018-05-14T11:46:22.168Z,99038.33
2018-05-14T11:48:49.673Z,99030.52
2018-05-14T11:51:17.290Z,99038.65
2018-05-14T11:53:44.783Z,99034.14
2018-05-14T11:56:12.293Z,99029.38
2018-05-14T11:58:39.763Z,99027.84
2018-05-14T12:01:07.243Z,99029.49
2018-05-14T12:03:34.760Z,99025.23
2018-05-14T12:06:02.311Z,99027.80
2018-05-14T12:08:29.827Z,99027.42
2018-05-14T12:10:57.315Z,99026.67
2018-05-14T12:13:24.798Z,99026.83
2018-05-14T12:15:52.303Z,99015.04
2018-05-14T12:18:19.808Z,99022.80
2018-05-14T12:20:47.369Z,99027.18
2018-05-14T12:23:14.871Z,99021.61
2018-05-14T12:25:42.372Z,99023.47
2018-05-14T12:28:09.911Z,99018.16
2018-05-14T12:30:37.449Z,99016.39
2018-05-14T12:33:04.977Z,99016.77
2018-05-14T12:35:32.493Z,99018.72
2018-05-14T12:38:00.037Z,99017.82
2018-05-14T12:40:27.559Z,99020.59
2018-05-14T12:42:55.056Z,99018.55
2018-05-14T12:45:22.556Z,99013.08
2018-05-14T12:47:50.036Z,99016.32
2018-05-14T12:50:17.560Z,99007.98
2018-05-14T12:52:45.190Z,98999.40
2018-05-14T12:55:12.704Z,99001.91
2018-05-14T12:57:40.225Z,98996.97
2018-05-14T13:00:07.761Z,98998.45
2018-05-14T13:02:35.259Z,98998.87
2018-05-14T13:05:02.751Z,98997.13
2018-05-14T13:07:30.268Z,98995.64
2018-05-14T13:09:57.832Z,98998.30
2018-05-14T13:12:25.387Z,98994.09
2018-05-14T13:14:52.881Z,98985.44
2018-05-14T13:17:20.397Z,98996.16
2018-05-14T13:19:47.904Z,98985.82
2018-05-14T13:22:15.401Z,98995.06
2018-05-14T13:24:42.928Z,98987.74
2018-05-14T13:27:10.419Z,98992.14
2018-05-14T13:29:37.902Z,98991.41
2018-05-14T13:32:05.390Z,98980.75
2018-05-14T13:34:32.852Z,98983.14
2018-05-14T13:37:00.370Z,98978.41
2018-05-14T13:39:27.870Z,98976.81
2018-05-14T13:41:55.340Z,98989.48
2018-05-14T13:44:22.872Z,98985.17
2018-05-14T13:46:50.354Z,98990.98
2018-05-14T13:49:17.976Z,98978.59
2018-05-14T13:51:45.508Z,98976.14
2018-05-14T13:54:12.963Z,98988.28
2018-05-14T13:56:40.513Z,98984.49
2018-05-14T13:59:08.009Z,98983.11
2018-05-14T14:01:35.494Z,98987.41
2018-05-14T14:04:03.036Z,98989.25
2018-05-14T14:06:30.591Z,98988.55
2018-05-14T14:08:58.057Z,98978.38
2018-05-14T14:11:25.609Z,98984.98
2018-05-14T14:13:53.089Z,98983.19
2018-05-14T14:16:20.588Z,98977.73
2018-05-14T14:18:48.056Z,98979.98
2018-05-14T14:21:15.550Z,98978.25
2018-05-14T14:23:43.223Z,98981.95
2018-05-14T14:26:10.561Z,98976.27
2018-05-14T14:28:38.070Z,98973.08
2018-05-14T14:31:05.560Z,98970.52
2018-05-14T14:33:33.020Z,98970.44
2018-05-14T14:36:00.507Z,98983.22
2018-05-14T14:38:27.965Z,98982.98
2018-05-14T14:40:55.529Z,98980.48
2018-05-14T14:43:23.053Z,98979.80
2018-05-14T14:45:50.534Z,98980.63
2018-05-14T14:48:18.028Z,98976.31
2018-05-14T14:50:45.582Z,98973.36
2018-05-14T14:53:13.043Z,98969.88
2018-05-14T14:55:40.508Z,98975.52
2018-05-14T14:58:07.982Z,98975.13
2018-05-14T15:00:35.442Z,98972.58
2018-05-14T15:03:02.906Z,98973.44
2018-05-14T15:05:30.408Z,98977.97
2018-05-14T15:07:57.887Z,98975.75
2018-05-14T15:10:25.675Z,98981.72
2018-05-14T15:12:53.168Z,98975.58
2018-05-14T15:15:20.655Z,98979.03
2018-05-14T15:17:48.163Z,98982.71
2018-05-14T15:20:15.630Z,98983.47
2018-05-14T15:22:43.155Z,98979.05
2018-05-14T15:25:10.647Z,98977.25
2018-05-14T15:27:38.182Z,98977.78
2018-05-14T15:30:05.746Z,98982.67
2018-05-14T15:32:33.238Z,98977.25
2018-05-14T15:35:00.719Z,98979.05
2018-05-14T15:37:28.233Z,98984.53
2018-05-14T15:39:55.691Z,98980.56
2018-05-14T15:42:23.176Z,98981.42
2018-05-14T15:44:50.651Z,98974.56
2018-05-14T15:47:18.136Z,98973.66
2018-05-14T15:49:45.639Z,98977.38
2018-05-14T15:52:13.136Z,98979.91
2018-05-14T15:54:40.621Z,98978.88
2018-05-14T15:57:08.124Z,98979.39
2018-05-14T15:59:35.603Z,98978.77
2018-05-14T16:02:03.060Z,98984.94
2018-05-14T16:04:30.523Z,98974.09
2018-05-14T16:06:58.026Z,98976.13
2018-05-14T16:09:25.496Z,98970.61
2018-05-14T16:11:52.959Z,98973.10
2018-05-14T16:14:20.414Z,98967.06
2018-05-14T16:16:47.910Z,98965.34
2018-05-14T16:19:15.410Z,98979.67
2018-05-14T16:21:42.901Z,98977.11
2018-05-14T16:24:10.413Z,98972.57
2018-05-14T16:26:38.002Z,98973.53
2018-05-14T16:29:05.457Z,98971.50
2018-05-14T16:31:32.932Z,98971.72
2018-05-14T16:34:00.444Z,98967.25
2018-05-14T16:36:27.939Z,98969.77
2018-05-14T16:38:55.402Z,98970.03
2018-05-14T16:41:22.903Z,98968.55
2018-05-14T16:43:50.364Z,98959.59
2018-05-14T16:46:17.840Z,98968.16
2018-05-14T16:48:45.412Z,98962.55
2018-05-14T16:51:12.865Z,98964.58
2018-05-14T16:53:40.362Z,98972.39
2018-05-14T16:56:07.848Z,98970.48
2018-05-14T16:58:35.305Z,98974.19
2018-05-14T17:01:02.791Z,98966.72
2018-05-14T17:03:30.257Z,98972.38
2018-05-14T17:05:57.733Z,98971.97
2018-05-14T17:08:25.253Z,98968.09
2018-05-14T17:10:52.715Z,98965.37
2018-05-14T17:13:20.194Z,98961.06
2018-05-14T17:15:47.671Z,98963.63
2018-05-14T17:18:15.157Z,98961.09
2018-05-14T17:20:42.641Z,98963.08
2018-05-14T17:23:10.132Z,98960.77
2018-05-14T17:25:37.606Z,98963.48
2018-05-14T17:28:05.115Z,98962.95
2018-05-14T17:30:32.608Z,98961.73
2018-05-14T17:33:00.102Z,98957.33
2018-05-14T17:35:27.605Z,98961.20
2018-05-14T17:37:55.075Z,98962.89
2018-05-14T17:40:22.549Z,98966.31
2018-05-14T17:42:50.054Z,98965.34
2018-05-14T17:45:17.560Z,98971.44
2018-05-14T17:47:45.049Z,98966.96
2018-05-14T17:50:12.552Z,98973.35
2018-05-14T17:52:40.003Z,98967.55
2018-05-14T17:55:07.715Z,98963.50
2018-05-14T17:57:35.197Z,98963.73
2018-05-14T18:00:02.658Z,98961.31
2018-05-14T18:02:30.200Z,98962.36
2018-05-14T18:04:57.726Z,98960.44
2018-05-14T18:07:25.230Z,98965.62
2018-05-14T18:09:52.699Z,98964.06
2018-05-14T18:12:20.192Z,98970.35
2018-05-14T18:14:47.692Z,98967.39
2018-05-14T18:17:15.275Z,98959.97
2018-05-14T18:19:48.235Z,98962.38
2018-05-14T18:22:21.338Z,98960.55
2018-05-14T18:24:50.644Z,98956.10
2018-05-14T18:27:23.663Z,98954.01
2018-05-14T18:29:55.016Z,98962.20
2018-05-14T18:32:22.496Z,98961.41
2018-05-14T18:34:59.914Z,98964.17
2018-05-14T18:37:27.392Z,98962.13
2018-05-14T18:39:54.873Z,98963.94
2018-05-14T18:42:22.461Z,98962.73
2018-05-14T18:44:49.955Z,98965.91
2018-05-14T18:47:17.478Z,98971.13
2018-05-14T18:49:45.691Z,98970.02
2018-05-14T18:52:14.440Z,98972.08
2018-05-14T18:54:41.926Z,98970.89
2018-05-14T18:57:09.508Z,98973.20
2018-05-14T18:59:36.979Z,98973.61
2018-05-14T19:02:04.565Z,98972.48
2018-05-14T19:04:31.978Z,98977.05
2018-05-14T19:06:59.477Z,98969.91
2018-05-14T19:09:26.968Z,98974.27
2018-05-14T19:11:54.486Z,98985.56
2018-05-14T19:14:21.981Z,98991.88
2018-05-14T19:16:55.109Z,98987.51
2018-05-14T19:21:55.301Z,98988.77
2018-05-14T19:24:22.776Z,98987.77
2018-05-14T19:26:50.246Z,98988.77
2018-05-14T19:29:23.296Z,98995.34
2018-05-14T19:31:50.728Z,98988.96
2018-05-14T19:34:23.947Z,98988.09
2018-05-14T19:36:51.454Z,98991.00
2018-05-14T19:39:24.541Z,98993.84
2018-05-14T19:41:52.124Z,98994.27
2018-05-14T19:44:19.593Z,98992.59
2018-05-14T19:46:47.084Z,98993.78
2018-05-14T19:49:16.703Z,99002.52
2018-05-14T19:51:47.127Z,98998.14
2018-05-14T19:54:15.035Z,98997.75
2018-05-14T19:56:42.688Z,99002.95
2018-05-14T19:59:11.582Z,99000.34
2018-05-14T20:01:39.250Z,98998.94
2018-05-14T20:04:06.976Z,98997.53
2018-05-14T20:06:34.465Z,98999.64
2018-05-14T20:09:01.963Z,98999.77
2018-05-14T20:11:29.512Z,98990.39
2018-05-14T20:13:58.438Z,98989.73
2018-05-14T20:16:26.079Z,98995.36
2018-05-14T20:18:53.550Z,98986.02
2018-05-14T20:21:21.067Z,98986.37
2018-05-14T20:23:48.577Z,98986.73
2018-05-14T20:26:16.060Z,98988.50
2018-05-14T20:28:43.562Z,98989.31
2018-05-14T20:31:11.730Z,98991.36
2018-05-14T20:33:39.208Z,98998.39
2018-05-14T20:36:06.851Z,98997.98
2018-05-14T20:38:34.408Z,98997.52
2018-05-14T20:41:01.967Z,98994.77
2018-05-14T20:43:35.056Z,98989.50
2018-05-14T20:49:07.303Z,99002.48
2018-05-14T20:51:34.807Z,98995.82
2018-05-14T20:57:09.049Z,99000.30
2018-05-14T21:02:10.126Z,98999.16
2018-05-14T21:04:37.903Z,98998.67
2018-05-14T21:07:06.290Z,98995.94
2018-05-14T21:09:33.823Z,98989.66
2018-05-14T21:12:01.372Z,98988.91
2018-05-14T21:14:29.293Z,98993.59
2018-05-14T21:16:56.859Z,98986.33
2018-05-14T21:19:24.939Z,98983.89
2018-05-14T21:21:52.418Z,98983.23
2018-05-14T21:24:19.923Z,98979.11
2018-05-14T21:26:47.403Z,98980.11
2018-05-14T21:29:14.899Z,98981.45
2018-05-14T21:31:42.424Z,98977.03
2018-05-14T21:34:10.031Z,98973.70
2018-05-14T21:36:37.488Z,98966.80
2018-05-14T21:39:05.723Z,98967.78
2018-05-14T21:41:33.200Z,98971.54
2018-05-14T21:44:02.443Z,98971.45
2018-05-14T21:46:30.007Z,98971.57
2018-05-14T21:48:57.504Z,98969.77
2018-05-14T21:51:25.002Z,98974.61
2018-05-14T21:53:52.477Z,98976.47
2018-05-14T21:56:19.977Z,98977.16
2018-05-14T21:58:48.403Z,98971.59
2018-05-14T22:01:15.886Z,98976.13
2018-05-14T22:03:43.369Z,98979.14
2018-05-14T22:06:12.692Z,98973.30
2018-05-14T22:08:40.178Z,98972.97
2018-05-14T22:11:07.661Z,98971.66
2018-05-14T22:13:35.153Z,98975.38
2018-05-14T22:16:02.630Z,98977.76
2018-05-14T22:18:31.072Z,98974.03
2018-05-14T22:20:59.321Z,98973.89
2018-05-14T22:23:26.779Z,98967.84
2018-05-14T22:25:54.290Z,98973.64
2018-05-14T22:28:21.757Z,98968.35
2018-05-14T22:30:49.236Z,98967.69
2018-05-14T22:33:16.722Z,98968.05
2018-05-14T22:35:44.279Z,98962.68
